VE24 weather

Sookerating Airport
Assam, India

Public forecast

Using degrees Celsius for public forecast. Weather courtesy of forecast.io.

METAR (pilot weather report)

Closest report is Dibrugarh Airport, 29.8 nm (55.1 km) W. Retrieved 2019/09/18 01:30 UTC (19 minutes ago):

VEMN 180130Z 12002KT 4000 -RA SCT018 FEW025CB BKN100 26/25 Q1012 TEMPO 2000 -RA

TAF (pilot weather forecast)

Forecast is more than 12 hours old.

Closest forecast is Along Airport, 55.3 nm (102.5 km) NW. Retrieved 2019/09/10 06:30 UTC (8 days ago):

TAF VEAN 100330Z 1006/1018 09008KT 6000 SCT020 SCT025 BKN090 TEMPO 1014/1018 3000 TSRA SCT025 FEW030CB BKN090